sensor_id;sensor_type;location;lat;lon;timestamp;P1;durP1;ratioP1;P2;durP2;ratioP2
12519;SDS011;6325;49.540;8.364;2022-12-18T00:01:03;23.35;;;16.92;;
12519;SDS011;6325;49.540;8.364;2022-12-18T00:03:44;26.45;;;18.55;;
12519;SDS011;6325;49.540;8.364;2022-12-18T00:06:16;23.27;;;16.03;;
12519;SDS011;6325;49.540;8.364;2022-12-18T00:08:47;24.90;;;17.67;;
12519;SDS011;6325;49.540;8.364;2022-12-18T00:11:31;25.75;;;17.55;;
12519;SDS011;6325;49.540;8.364;2022-12-18T00:14:06;24.60;;;17.58;;
12519;SDS011;6325;49.540;8.364;2022-12-18T00:16:42;26.52;;;18.23;;
12519;SDS011;6325;49.540;8.364;2022-12-18T00:19:28;27.13;;;18.70;;
12519;SDS011;6325;49.540;8.364;2022-12-18T00:22:06;24.88;;;17.30;;
12519;SDS011;6325;49.540;8.364;2022-12-18T00:24:39;26.83;;;18.67;;
12519;SDS011;6325;49.540;8.364;2022-12-18T00:27:08;24.75;;;17.52;;
12519;SDS011;6325;49.540;8.364;2022-12-18T00:29:43;25.00;;;17.42;;
12519;SDS011;6325;49.540;8.364;2022-12-18T00:32:32;26.17;;;18.33;;
12519;SDS011;6325;49.540;8.364;2022-12-18T00:35:02;25.38;;;17.23;;
12519;SDS011;6325;49.540;8.364;2022-12-18T00:37:36;23.35;;;16.52;;
12519;SDS011;6325;49.540;8.364;2022-12-18T00:40:10;24.38;;;17.27;;
12519;SDS011;6325;49.540;8.364;2022-12-18T00:42:39;24.92;;;17.30;;
12519;SDS011;6325;49.540;8.364;2022-12-18T00:45:23;27.27;;;19.02;;
12519;SDS011;6325;49.540;8.364;2022-12-18T00:47:52;24.45;;;17.05;;
12519;SDS011;6325;49.540;8.364;2022-12-18T00:50:25;29.35;;;19.20;;
12519;SDS011;6325;49.540;8.364;2022-12-18T00:52:57;25.85;;;18.48;;
12519;SDS011;6325;49.540;8.364;2022-12-18T00:55:34;26.90;;;19.03;;
12519;SDS011;6325;49.540;8.364;2022-12-18T00:58:01;26.80;;;18.23;;
12519;SDS011;6325;49.540;8.364;2022-12-18T01:00:37;24.48;;;17.75;;
12519;SDS011;6325;49.540;8.364;2022-12-18T01:03:04;23.08;;;16.52;;
12519;SDS011;6325;49.540;8.364;2022-12-18T01:05:38;27.63;;;18.77;;
12519;SDS011;6325;49.540;8.364;2022-12-18T01:08:07;23.55;;;16.67;;
12519;SDS011;6325;49.540;8.364;2022-12-18T01:10:49;27.23;;;18.73;;
12519;SDS011;6325;49.540;8.364;2022-12-18T01:13:21;26.55;;;18.35;;
12519;SDS011;6325;49.540;8.364;2022-12-18T01:15:59;25.70;;;17.88;;
12519;SDS011;6325;49.540;8.364;2022-12-18T01:18:35;22.90;;;16.73;;
12519;SDS011;6325;49.540;8.364;2022-12-18T01:21:05;28.23;;;18.57;;
12519;SDS011;6325;49.540;8.364;2022-12-18T01:23:33;23.95;;;17.00;;
12519;SDS011;6325;49.540;8.364;2022-12-18T01:26:06;26.48;;;18.23;;
12519;SDS011;6325;49.540;8.364;2022-12-18T01:28:42;26.42;;;18.45;;
12519;SDS011;6325;49.540;8.364;2022-12-18T01:31:21;24.10;;;16.15;;
12519;SDS011;6325;49.540;8.364;2022-12-18T01:33:52;28.15;;;18.98;;
12519;SDS011;6325;49.540;8.364;2022-12-18T01:36:25;28.85;;;19.17;;
12519;SDS011;6325;49.540;8.364;2022-12-18T01:38:54;24.38;;;17.67;;
12519;SDS011;6325;49.540;8.364;2022-12-18T01:41:25;28.08;;;18.77;;
12519;SDS011;6325;49.540;8.364;2022-12-18T01:47:32;25.02;;;17.75;;
12519;SDS011;6325;49.540;8.364;2022-12-18T01:50:06;25.60;;;18.20;;
12519;SDS011;6325;49.540;8.364;2022-12-18T01:52:41;25.70;;;17.53;;
12519;SDS011;6325;49.540;8.364;2022-12-18T01:55:10;25.97;;;17.93;;
12519;SDS011;6325;49.540;8.364;2022-12-18T01:57:43;28.40;;;18.58;;
12519;SDS011;6325;49.540;8.364;2022-12-18T02:00:13;25.60;;;18.20;;
12519;SDS011;6325;49.540;8.364;2022-12-18T02:02:45;24.13;;;16.85;;
12519;SDS011;6325;49.540;8.364;2022-12-18T02:05:16;28.60;;;18.97;;
12519;SDS011;6325;49.540;8.364;2022-12-18T02:07:52;25.17;;;17.67;;
12519;SDS011;6325;49.540;8.364;2022-12-18T02:10:33;22.50;;;15.88;;
12519;SDS011;6325;49.540;8.364;2022-12-18T02:13:07;23.05;;;16.33;;
12519;SDS011;6325;49.540;8.364;2022-12-18T02:15:40;23.27;;;16.15;;
12519;SDS011;6325;49.540;8.364;2022-12-18T02:18:18;22.45;;;15.70;;
12519;SDS011;6325;49.540;8.364;2022-12-18T02:20:50;26.17;;;17.40;;
12519;SDS011;6325;49.540;8.364;2022-12-18T02:23:24;23.17;;;15.98;;
12519;SDS011;6325;49.540;8.364;2022-12-18T02:26:16;23.73;;;16.13;;
12519;SDS011;6325;49.540;8.364;2022-12-18T02:28:46;26.20;;;17.27;;
12519;SDS011;6325;49.540;8.364;2022-12-18T02:31:19;24.02;;;16.50;;
12519;SDS011;6325;49.540;8.364;2022-12-18T02:33:50;24.20;;;16.13;;
12519;SDS011;6325;49.540;8.364;2022-12-18T02:36:23;20.77;;;14.30;;
12519;SDS011;6325;49.540;8.364;2022-12-18T02:38:54;23.50;;;15.90;;
12519;SDS011;6325;49.540;8.364;2022-12-18T02:41:25;25.85;;;17.42;;
12519;SDS011;6325;49.540;8.364;2022-12-18T02:43:56;25.75;;;17.20;;
12519;SDS011;6325;49.540;8.364;2022-12-18T02:46:30;25.02;;;17.42;;
12519;SDS011;6325;49.540;8.364;2022-12-18T02:49:02;26.27;;;17.33;;
12519;SDS011;6325;49.540;8.364;2022-12-18T02:51:45;23.75;;;16.08;;
12519;SDS011;6325;49.540;8.364;2022-12-18T02:54:21;26.58;;;17.95;;
12519;SDS011;6325;49.540;8.364;2022-12-18T02:57:08;24.33;;;16.38;;
12519;SDS011;6325;49.540;8.364;2022-12-18T02:59:44;27.67;;;18.80;;
12519;SDS011;6325;49.540;8.364;2022-12-18T03:02:19;25.83;;;17.92;;
12519;SDS011;6325;49.540;8.364;2022-12-18T03:04:50;29.08;;;19.00;;
12519;SDS011;6325;49.540;8.364;2022-12-18T03:07:36;27.98;;;19.42;;
12519;SDS011;6325;49.540;8.364;2022-12-18T03:10:11;24.77;;;17.15;;
12519;SDS011;6325;49.540;8.364;2022-12-18T03:12:46;26.13;;;18.27;;
12519;SDS011;6325;49.540;8.364;2022-12-18T03:15:18;29.27;;;19.35;;
12519;SDS011;6325;49.540;8.364;2022-12-18T03:17:52;25.45;;;17.55;;
12519;SDS011;6325;49.540;8.364;2022-12-18T03:20:25;23.20;;;15.87;;
12519;SDS011;6325;49.540;8.364;2022-12-18T03:22:59;24.65;;;16.52;;
12519;SDS011;6325;49.540;8.364;2022-12-18T03:25:34;27.77;;;18.50;;
12519;SDS011;6325;49.540;8.364;2022-12-18T03:28:07;27.15;;;18.48;;
12519;SDS011;6325;49.540;8.364;2022-12-18T03:30:45;27.60;;;18.35;;
12519;SDS011;6325;49.540;8.364;2022-12-18T03:33:16;26.33;;;17.52;;
12519;SDS011;6325;49.540;8.364;2022-12-18T03:35:50;26.17;;;17.52;;
12519;SDS011;6325;49.540;8.364;2022-12-18T03:38:17;28.58;;;19.20;;
12519;SDS011;6325;49.540;8.364;2022-12-18T03:40:51;27.55;;;18.83;;
12519;SDS011;6325;49.540;8.364;2022-12-18T03:43:32;26.60;;;18.50;;
12519;SDS011;6325;49.540;8.364;2022-12-18T03:46:07;28.52;;;19.20;;
12519;SDS011;6325;49.540;8.364;2022-12-18T03:48:41;27.83;;;18.58;;
12519;SDS011;6325;49.540;8.364;2022-12-18T03:51:14;26.27;;;18.02;;
12519;SDS011;6325;49.540;8.364;2022-12-18T03:53:50;23.63;;;16.50;;
12519;SDS011;6325;49.540;8.364;2022-12-18T03:56:25;25.60;;;17.50;;
12519;SDS011;6325;49.540;8.364;2022-12-18T03:58:57;25.83;;;17.00;;
12519;SDS011;6325;49.540;8.364;2022-12-18T04:01:30;23.25;;;16.33;;
12519;SDS011;6325;49.540;8.364;2022-12-18T04:04:00;25.83;;;17.67;;
12519;SDS011;6325;49.540;8.364;2022-12-18T04:06:29;24.02;;;16.27;;
12519;SDS011;6325;49.540;8.364;2022-12-18T04:09:00;27.40;;;18.02;;
12519;SDS011;6325;49.540;8.364;2022-12-18T04:11:30;26.27;;;17.88;;
12519;SDS011;6325;49.540;8.364;2022-12-18T04:13:59;28.02;;;18.75;;
12519;SDS011;6325;49.540;8.364;2022-12-18T04:16:27;23.73;;;15.87;;
12519;SDS011;6325;49.540;8.364;2022-12-18T04:18:55;24.90;;;17.65;;
12519;SDS011;6325;49.540;8.364;2022-12-18T04:21:24;26.52;;;17.70;;
12519;SDS011;6325;49.540;8.364;2022-12-18T04:23:51;26.33;;;18.08;;
12519;SDS011;6325;49.540;8.364;2022-12-18T04:26:20;25.25;;;16.67;;
12519;SDS011;6325;49.540;8.364;2022-12-18T04:28:51;27.10;;;17.92;;
12519;SDS011;6325;49.540;8.364;2022-12-18T04:31:24;25.10;;;16.52;;
12519;SDS011;6325;49.540;8.364;2022-12-18T04:33:51;31.38;;;17.85;;
12519;SDS011;6325;49.540;8.364;2022-12-18T04:36:18;23.63;;;16.73;;
12519;SDS011;6325;49.540;8.364;2022-12-18T04:38:46;24.52;;;16.73;;
12519;SDS011;6325;49.540;8.364;2022-12-18T04:41:13;25.97;;;17.37;;
12519;SDS011;6325;49.540;8.364;2022-12-18T04:43:41;25.08;;;17.48;;
12519;SDS011;6325;49.540;8.364;2022-12-18T04:46:08;27.90;;;17.93;;
12519;SDS011;6325;49.540;8.364;2022-12-18T04:48:38;27.67;;;19.15;;
12519;SDS011;6325;49.540;8.364;2022-12-18T04:51:07;25.53;;;17.47;;
12519;SDS011;6325;49.540;8.364;2022-12-18T04:53:34;26.77;;;18.30;;
12519;SDS011;6325;49.540;8.364;2022-12-18T04:56:02;24.80;;;17.23;;
12519;SDS011;6325;49.540;8.364;2022-12-18T04:58:31;30.60;;;19.67;;
12519;SDS011;6325;49.540;8.364;2022-12-18T05:00:58;29.05;;;19.42;;
12519;SDS011;6325;49.540;8.364;2022-12-18T05:03:29;26.95;;;18.58;;
12519;SDS011;6325;49.540;8.364;2022-12-18T05:05:59;30.73;;;19.55;;
12519;SDS011;6325;49.540;8.364;2022-12-18T05:08:26;24.45;;;17.10;;
12519;SDS011;6325;49.540;8.364;2022-12-18T05:10:58;23.87;;;16.43;;
12519;SDS011;6325;49.540;8.364;2022-12-18T05:13:26;23.55;;;16.23;;
12519;SDS011;6325;49.540;8.364;2022-12-18T05:15:53;24.85;;;17.55;;
12519;SDS011;6325;49.540;8.364;2022-12-18T05:18:22;22.98;;;15.95;;
12519;SDS011;6325;49.540;8.364;2022-12-18T05:20:50;23.90;;;16.88;;
12519;SDS011;6325;49.540;8.364;2022-12-18T05:23:20;26.80;;;17.98;;
12519;SDS011;6325;49.540;8.364;2022-12-18T05:25:50;23.90;;;16.67;;
12519;SDS011;6325;49.540;8.364;2022-12-18T05:28:19;28.05;;;18.25;;
12519;SDS011;6325;49.540;8.364;2022-12-18T05:30:48;31.85;;;19.98;;
12519;SDS011;6325;49.540;8.364;2022-12-18T05:33:16;26.23;;;18.08;;
12519;SDS011;6325;49.540;8.364;2022-12-18T05:35:44;28.60;;;18.42;;
12519;SDS011;6325;49.540;8.364;2022-12-18T05:38:17;25.17;;;17.70;;
12519;SDS011;6325;49.540;8.364;2022-12-18T05:40:47;24.48;;;17.02;;
12519;SDS011;6325;49.540;8.364;2022-12-18T05:43:14;29.95;;;18.73;;
12519;SDS011;6325;49.540;8.364;2022-12-18T05:45:42;31.63;;;17.77;;
12519;SDS011;6325;49.540;8.364;2022-12-18T05:48:12;33.20;;;18.80;;
12519;SDS011;6325;49.540;8.364;2022-12-18T05:50:40;29.67;;;19.02;;
12519;SDS011;6325;49.540;8.364;2022-12-18T05:53:10;29.63;;;18.58;;
12519;SDS011;6325;49.540;8.364;2022-12-18T05:55:42;27.52;;;18.30;;
12519;SDS011;6325;49.540;8.364;2022-12-18T05:58:10;23.00;;;16.30;;
12519;SDS011;6325;49.540;8.364;2022-12-18T06:00:41;27.67;;;18.23;;
12519;SDS011;6325;49.540;8.364;2022-12-18T06:03:10;28.48;;;18.35;;
12519;SDS011;6325;49.540;8.364;2022-12-18T06:05:39;28.42;;;17.15;;
12519;SDS011;6325;49.540;8.364;2022-12-18T06:08:07;25.45;;;15.60;;
12519;SDS011;6325;49.540;8.364;2022-12-18T06:10:35;25.73;;;16.73;;
12519;SDS011;6325;49.540;8.364;2022-12-18T06:13:05;24.40;;;16.65;;
12519;SDS011;6325;49.540;8.364;2022-12-18T06:15:35;24.13;;;16.15;;
12519;SDS011;6325;49.540;8.364;2022-12-18T06:18:04;22.33;;;15.10;;
12519;SDS011;6325;49.540;8.364;2022-12-18T06:20:32;20.65;;;14.27;;
12519;SDS011;6325;49.540;8.364;2022-12-18T06:23:01;27.73;;;16.30;;
12519;SDS011;6325;49.540;8.364;2022-12-18T06:25:29;24.48;;;16.08;;
12519;SDS011;6325;49.540;8.364;2022-12-18T06:27:56;28.17;;;16.98;;
12519;SDS011;6325;49.540;8.364;2022-12-18T06:30:25;33.50;;;17.63;;
12519;SDS011;6325;49.540;8.364;2022-12-18T06:32:53;30.95;;;17.27;;
12519;SDS011;6325;49.540;8.364;2022-12-18T06:35:20;26.17;;;17.60;;
12519;SDS011;6325;49.540;8.364;2022-12-18T06:38:00;24.52;;;16.33;;
12519;SDS011;6325;49.540;8.364;2022-12-18T06:40:29;20.85;;;15.32;;
12519;SDS011;6325;49.540;8.364;2022-12-18T06:43:01;22.50;;;14.85;;
12519;SDS011;6325;49.540;8.364;2022-12-18T06:45:36;22.63;;;14.87;;
12519;SDS011;6325;49.540;8.364;2022-12-18T06:48:04;27.30;;;16.70;;
12519;SDS011;6325;49.540;8.364;2022-12-18T06:50:31;27.42;;;17.45;;
12519;SDS011;6325;49.540;8.364;2022-12-18T06:52:59;23.42;;;15.95;;
12519;SDS011;6325;49.540;8.364;2022-12-18T06:55:30;25.88;;;16.38;;
12519;SDS011;6325;49.540;8.364;2022-12-18T06:57:57;24.27;;;15.93;;
12519;SDS011;6325;49.540;8.364;2022-12-18T07:00:25;24.70;;;16.63;;
12519;SDS011;6325;49.540;8.364;2022-12-18T07:02:53;24.05;;;15.73;;
12519;SDS011;6325;49.540;8.364;2022-12-18T07:05:21;25.20;;;16.13;;
12519;SDS011;6325;49.540;8.364;2022-12-18T07:07:51;20.38;;;14.77;;
12519;SDS011;6325;49.540;8.364;2022-12-18T07:10:18;23.30;;;15.77;;
12519;SDS011;6325;49.540;8.364;2022-12-18T07:12:49;24.87;;;16.80;;
12519;SDS011;6325;49.540;8.364;2022-12-18T07:15:16;23.45;;;15.88;;
12519;SDS011;6325;49.540;8.364;2022-12-18T07:17:43;23.75;;;15.93;;
12519;SDS011;6325;49.540;8.364;2022-12-18T07:20:12;28.75;;;18.20;;
12519;SDS011;6325;49.540;8.364;2022-12-18T07:22:43;26.58;;;17.67;;
12519;SDS011;6325;49.540;8.364;2022-12-18T07:25:12;24.38;;;16.08;;
12519;SDS011;6325;49.540;8.364;2022-12-18T07:27:39;25.10;;;16.67;;
12519;SDS011;6325;49.540;8.364;2022-12-18T07:30:09;23.50;;;15.77;;
12519;SDS011;6325;49.540;8.364;2022-12-18T07:32:37;23.88;;;16.35;;
12519;SDS011;6325;49.540;8.364;2022-12-18T07:35:04;26.15;;;16.92;;
12519;SDS011;6325;49.540;8.364;2022-12-18T07:37:34;26.17;;;16.75;;
12519;SDS011;6325;49.540;8.364;2022-12-18T07:40:09;26.88;;;17.48;;
12519;SDS011;6325;49.540;8.364;2022-12-18T07:42:37;27.65;;;17.80;;
12519;SDS011;6325;49.540;8.364;2022-12-18T07:45:04;21.98;;;15.15;;
12519;SDS011;6325;49.540;8.364;2022-12-18T07:47:33;28.88;;;18.33;;
12519;SDS011;6325;49.540;8.364;2022-12-18T07:50:02;25.85;;;17.15;;
12519;SDS011;6325;49.540;8.364;2022-12-18T07:52:29;27.77;;;18.13;;
12519;SDS011;6325;49.540;8.364;2022-12-18T07:54:58;26.50;;;17.08;;
12519;SDS011;6325;49.540;8.364;2022-12-18T07:57:26;24.67;;;16.53;;
12519;SDS011;6325;49.540;8.364;2022-12-18T07:59:53;24.63;;;15.80;;
12519;SDS011;6325;49.540;8.364;2022-12-18T08:02:21;24.92;;;17.15;;
12519;SDS011;6325;49.540;8.364;2022-12-18T08:04:48;27.65;;;17.67;;
12519;SDS011;6325;49.540;8.364;2022-12-18T08:07:15;22.38;;;15.55;;
12519;SDS011;6325;49.540;8.364;2022-12-18T08:09:43;26.35;;;17.67;;
12519;SDS011;6325;49.540;8.364;2022-12-18T08:12:13;22.67;;;15.57;;
12519;SDS011;6325;49.540;8.364;2022-12-18T08:14:41;29.88;;;19.15;;
12519;SDS011;6325;49.540;8.364;2022-12-18T08:17:10;24.63;;;16.75;;
12519;SDS011;6325;49.540;8.364;2022-12-18T08:19:39;27.60;;;18.63;;
12519;SDS011;6325;49.540;8.364;2022-12-18T08:22:10;27.30;;;18.42;;
12519;SDS011;6325;49.540;8.364;2022-12-18T08:24:42;22.85;;;16.30;;
12519;SDS011;6325;49.540;8.364;2022-12-18T08:27:11;27.90;;;18.92;;
12519;SDS011;6325;49.540;8.364;2022-12-18T08:29:39;27.48;;;18.38;;
12519;SDS011;6325;49.540;8.364;2022-12-18T08:32:11;23.42;;;16.83;;
12519;SDS011;6325;49.540;8.364;2022-12-18T08:34:38;27.17;;;18.77;;
12519;SDS011;6325;49.540;8.364;2022-12-18T08:37:05;27.60;;;18.48;;
12519;SDS011;6325;49.540;8.364;2022-12-18T08:39:32;24.58;;;16.90;;
12519;SDS011;6325;49.540;8.364;2022-12-18T08:42:00;24.02;;;17.00;;
12519;SDS011;6325;49.540;8.364;2022-12-18T08:44:46;23.88;;;16.42;;
12519;SDS011;6325;49.540;8.364;2022-12-18T08:47:13;23.37;;;16.70;;
12519;SDS011;6325;49.540;8.364;2022-12-18T08:49:40;22.67;;;16.23;;
12519;SDS011;6325;49.540;8.364;2022-12-18T08:52:08;19.40;;;14.45;;
12519;SDS011;6325;49.540;8.364;2022-12-18T08:54:37;21.88;;;16.35;;
12519;SDS011;6325;49.540;8.364;2022-12-18T08:57:04;24.75;;;18.27;;
12519;SDS011;6325;49.540;8.364;2022-12-18T08:59:31;24.52;;;17.67;;
12519;SDS011;6325;49.540;8.364;2022-12-18T09:02:02;24.25;;;16.90;;
12519;SDS011;6325;49.540;8.364;2022-12-18T09:04:30;23.30;;;16.23;;
12519;SDS011;6325;49.540;8.364;2022-12-18T09:07:04;23.70;;;17.48;;
12519;SDS011;6325;49.540;8.364;2022-12-18T09:09:47;25.15;;;17.50;;
12519;SDS011;6325;49.540;8.364;2022-12-18T09:12:17;29.13;;;20.00;;
12519;SDS011;6325;49.540;8.364;2022-12-18T09:14:47;25.73;;;18.05;;
12519;SDS011;6325;49.540;8.364;2022-12-18T09:17:17;22.80;;;17.25;;
12519;SDS011;6325;49.540;8.364;2022-12-18T09:19:45;23.42;;;16.67;;
12519;SDS011;6325;49.540;8.364;2022-12-18T09:22:12;25.02;;;17.52;;
12519;SDS011;6325;49.540;8.364;2022-12-18T09:24:39;24.27;;;17.58;;
12519;SDS011;6325;49.540;8.364;2022-12-18T09:27:05;22.73;;;16.98;;
12519;SDS011;6325;49.540;8.364;2022-12-18T09:29:33;22.83;;;16.75;;
12519;SDS011;6325;49.540;8.364;2022-12-18T09:32:00;23.50;;;17.67;;
12519;SDS011;6325;49.540;8.364;2022-12-18T09:34:29;22.47;;;17.07;;
12519;SDS011;6325;49.540;8.364;2022-12-18T09:36:55;22.20;;;17.05;;
12519;SDS011;6325;49.540;8.364;2022-12-18T09:39:22;21.92;;;16.38;;
12519;SDS011;6325;49.540;8.364;2022-12-18T09:41:50;20.63;;;16.27;;
12519;SDS011;6325;49.540;8.364;2022-12-18T09:44:21;25.38;;;17.40;;
12519;SDS011;6325;49.540;8.364;2022-12-18T09:46:52;25.40;;;17.75;;
12519;SDS011;6325;49.540;8.364;2022-12-18T09:49:30;24.95;;;17.55;;
12519;SDS011;6325;49.540;8.364;2022-12-18T09:52:03;26.00;;;18.58;;
12519;SDS011;6325;49.540;8.364;2022-12-18T09:54:35;28.08;;;19.15;;
12519;SDS011;6325;49.540;8.364;2022-12-18T09:57:05;25.25;;;18.00;;
12519;SDS011;6325;49.540;8.364;2022-12-18T09:59:34;28.13;;;19.67;;
12519;SDS011;6325;49.540;8.364;2022-12-18T10:02:11;24.92;;;17.55;;
12519;SDS011;6325;49.540;8.364;2022-12-18T10:04:42;27.27;;;19.08;;
12519;SDS011;6325;49.540;8.364;2022-12-18T10:07:11;26.17;;;18.73;;
12519;SDS011;6325;49.540;8.364;2022-12-18T10:09:46;23.40;;;16.92;;
12519;SDS011;6325;49.540;8.364;2022-12-18T10:12:22;23.23;;;16.90;;
12519;SDS011;6325;49.540;8.364;2022-12-18T10:15:00;27.38;;;18.80;;
12519;SDS011;6325;49.540;8.364;2022-12-18T10:17:35;27.35;;;19.10;;
12519;SDS011;6325;49.540;8.364;2022-12-18T10:20:13;25.65;;;18.38;;
12519;SDS011;6325;49.540;8.364;2022-12-18T10:22:44;25.08;;;17.42;;
12519;SDS011;6325;49.540;8.364;2022-12-18T10:25:21;23.73;;;17.20;;
12519;SDS011;6325;49.540;8.364;2022-12-18T10:27:51;30.35;;;20.65;;
12519;SDS011;6325;49.540;8.364;2022-12-18T10:30:21;28.00;;;19.23;;
12519;SDS011;6325;49.540;8.364;2022-12-18T10:32:49;24.88;;;18.27;;
12519;SDS011;6325;49.540;8.364;2022-12-18T10:35:19;25.30;;;17.77;;
12519;SDS011;6325;49.540;8.364;2022-12-18T10:38:00;24.43;;;17.43;;
12519;SDS011;6325;49.540;8.364;2022-12-18T10:40:32;26.15;;;19.23;;
12519;SDS011;6325;49.540;8.364;2022-12-18T10:43:14;28.27;;;19.92;;
12519;SDS011;6325;49.540;8.364;2022-12-18T10:45:57;29.30;;;20.98;;
12519;SDS011;6325;49.540;8.364;2022-12-18T10:48:26;27.98;;;20.08;;
12519;SDS011;6325;49.540;8.364;2022-12-18T10:51:03;27.30;;;19.52;;
12519;SDS011;6325;49.540;8.364;2022-12-18T10:53:31;31.17;;;21.80;;
12519;SDS011;6325;49.540;8.364;2022-12-18T10:56:13;26.25;;;19.27;;
12519;SDS011;6325;49.540;8.364;2022-12-18T10:58:54;28.15;;;19.92;;
12519;SDS011;6325;49.540;8.364;2022-12-18T11:01:23;27.25;;;19.45;;
12519;SDS011;6325;49.540;8.364;2022-12-18T11:03:58;26.02;;;18.58;;
12519;SDS011;6325;49.540;8.364;2022-12-18T11:06:28;28.50;;;20.25;;
12519;SDS011;6325;49.540;8.364;2022-12-18T11:08:59;26.83;;;19.60;;
12519;SDS011;6325;49.540;8.364;2022-12-18T11:11:27;29.27;;;21.40;;
12519;SDS011;6325;49.540;8.364;2022-12-18T11:13:59;24.38;;;18.17;;
12519;SDS011;6325;49.540;8.364;2022-12-18T11:16:29;28.50;;;20.80;;
12519;SDS011;6325;49.540;8.364;2022-12-18T11:19:08;23.58;;;17.77;;
12519;SDS011;6325;49.540;8.364;2022-12-18T11:21:42;30.95;;;21.88;;
12519;SDS011;6325;49.540;8.364;2022-12-18T11:24:15;28.90;;;21.02;;
12519;SDS011;6325;49.540;8.364;2022-12-18T11:26:46;27.23;;;19.08;;
12519;SDS011;6325;49.540;8.364;2022-12-18T11:29:16;29.58;;;21.42;;
12519;SDS011;6325;49.540;8.364;2022-12-18T11:31:48;28.90;;;20.90;;
12519;SDS011;6325;49.540;8.364;2022-12-18T11:34:16;27.90;;;20.35;;
12519;SDS011;6325;49.540;8.364;2022-12-18T11:36:50;31.30;;;21.90;;
12519;SDS011;6325;49.540;8.364;2022-12-18T11:39:20;28.90;;;21.02;;
12519;SDS011;6325;49.540;8.364;2022-12-18T11:41:59;30.05;;;20.50;;
12519;SDS011;6325;49.540;8.364;2022-12-18T11:44:38;29.67;;;21.37;;
12519;SDS011;6325;49.540;8.364;2022-12-18T11:47:13;25.90;;;19.20;;
12519;SDS011;6325;49.540;8.364;2022-12-18T11:49:47;25.67;;;18.70;;
12519;SDS011;6325;49.540;8.364;2022-12-18T11:52:18;28.27;;;20.20;;
12519;SDS011;6325;49.540;8.364;2022-12-18T11:54:50;30.25;;;21.15;;
12519;SDS011;6325;49.540;8.364;2022-12-18T11:57:20;32.63;;;23.27;;
12519;SDS011;6325;49.540;8.364;2022-12-18T12:00:01;29.40;;;20.35;;
12519;SDS011;6325;49.540;8.364;2022-12-18T12:02:35;29.95;;;21.27;;
12519;SDS011;6325;49.540;8.364;2022-12-18T12:05:32;29.92;;;21.70;;
12519;SDS011;6325;49.540;8.364;2022-12-18T12:08:12;25.20;;;19.15;;
12519;SDS011;6325;49.540;8.364;2022-12-18T12:10:48;24.50;;;18.70;;
12519;SDS011;6325;49.540;8.364;2022-12-18T12:13:23;25.25;;;19.13;;
12519;SDS011;6325;49.540;8.364;2022-12-18T12:16:09;27.00;;;20.63;;
12519;SDS011;6325;49.540;8.364;2022-12-18T12:18:46;29.13;;;21.23;;
12519;SDS011;6325;49.540;8.364;2022-12-18T12:21:26;26.10;;;18.95;;
12519;SDS011;6325;49.540;8.364;2022-12-18T12:24:04;28.27;;;20.58;;
12519;SDS011;6325;49.540;8.364;2022-12-18T12:26:47;28.58;;;21.38;;
12519;SDS011;6325;49.540;8.364;2022-12-18T12:29:26;27.90;;;20.30;;
12519;SDS011;6325;49.540;8.364;2022-12-18T12:32:07;29.40;;;22.63;;
12519;SDS011;6325;49.540;8.364;2022-12-18T12:34:49;30.00;;;21.90;;
12519;SDS011;6325;49.540;8.364;2022-12-18T12:37:29;29.73;;;22.52;;
12519;SDS011;6325;49.540;8.364;2022-12-18T12:40:06;27.27;;;20.67;;
12519;SDS011;6325;49.540;8.364;2022-12-18T12:42:35;27.95;;;20.58;;
12519;SDS011;6325;49.540;8.364;2022-12-18T12:45:26;30.43;;;22.80;;
12519;SDS011;6325;49.540;8.364;2022-12-18T12:47:59;28.13;;;20.83;;
12519;SDS011;6325;49.540;8.364;2022-12-18T12:50:29;27.75;;;20.73;;
12519;SDS011;6325;49.540;8.364;2022-12-18T12:52:59;24.80;;;19.52;;
12519;SDS011;6325;49.540;8.364;2022-12-18T12:55:33;27.20;;;20.42;;
12519;SDS011;6325;49.540;8.364;2022-12-18T12:58:04;27.38;;;20.45;;
12519;SDS011;6325;49.540;8.364;2022-12-18T13:00:39;31.92;;;23.63;;
12519;SDS011;6325;49.540;8.364;2022-12-18T13:03:12;30.08;;;23.00;;
12519;SDS011;6325;49.540;8.364;2022-12-18T13:05:46;26.00;;;20.10;;
12519;SDS011;6325;49.540;8.364;2022-12-18T13:08:24;28.65;;;21.80;;
12519;SDS011;6325;49.540;8.364;2022-12-18T13:10:54;29.67;;;22.42;;
12519;SDS011;6325;49.540;8.364;2022-12-18T13:13:50;29.42;;;22.63;;
12519;SDS011;6325;49.540;8.364;2022-12-18T13:16:18;32.90;;;24.27;;
12519;SDS011;6325;49.540;8.364;2022-12-18T13:18:50;30.88;;;23.10;;
12519;SDS011;6325;49.540;8.364;2022-12-18T13:21:21;30.25;;;22.45;;
12519;SDS011;6325;49.540;8.364;2022-12-18T13:23:50;30.85;;;23.92;;
12519;SDS011;6325;49.540;8.364;2022-12-18T13:26:33;31.80;;;23.30;;
12519;SDS011;6325;49.540;8.364;2022-12-18T13:29:01;27.92;;;20.85;;
12519;SDS011;6325;49.540;8.364;2022-12-18T13:34:34;30.45;;;23.20;;
12519;SDS011;6325;49.540;8.364;2022-12-18T13:37:36;27.98;;;21.65;;
12519;SDS011;6325;49.540;8.364;2022-12-18T13:43:37;32.83;;;23.88;;
12519;SDS011;6325;49.540;8.364;2022-12-18T13:46:18;32.58;;;24.15;;
12519;SDS011;6325;49.540;8.364;2022-12-18T13:49:00;30.98;;;23.17;;
12519;SDS011;6325;49.540;8.364;2022-12-18T13:51:31;28.50;;;21.67;;
12519;SDS011;6325;49.540;8.364;2022-12-18T13:54:02;30.98;;;23.08;;
12519;SDS011;6325;49.540;8.364;2022-12-18T13:56:42;30.70;;;23.42;;
12519;SDS011;6325;49.540;8.364;2022-12-18T13:59:14;32.92;;;24.63;;
12519;SDS011;6325;49.540;8.364;2022-12-18T14:01:44;29.15;;;22.20;;
12519;SDS011;6325;49.540;8.364;2022-12-18T14:04:17;28.70;;;22.08;;
12519;SDS011;6325;49.540;8.364;2022-12-18T14:06:51;31.42;;;24.05;;
12519;SDS011;6325;49.540;8.364;2022-12-18T14:09:22;27.17;;;20.87;;
12519;SDS011;6325;49.540;8.364;2022-12-18T14:11:51;27.92;;;21.73;;
12519;SDS011;6325;49.540;8.364;2022-12-18T14:14:42;29.08;;;22.38;;
12519;SDS011;6325;49.540;8.364;2022-12-18T14:17:12;26.65;;;20.85;;
12519;SDS011;6325;49.540;8.364;2022-12-18T14:19:43;24.05;;;19.13;;
12519;SDS011;6325;49.540;8.364;2022-12-18T14:22:16;28.27;;;21.58;;
12519;SDS011;6325;49.540;8.364;2022-12-18T14:24:45;27.83;;;21.00;;
12519;SDS011;6325;49.540;8.364;2022-12-18T14:27:19;27.80;;;21.90;;
12519;SDS011;6325;49.540;8.364;2022-12-18T14:29:50;31.75;;;24.05;;
12519;SDS011;6325;49.540;8.364;2022-12-18T14:32:18;30.90;;;23.40;;
12519;SDS011;6325;49.540;8.364;2022-12-18T14:34:46;29.83;;;23.17;;
12519;SDS011;6325;49.540;8.364;2022-12-18T14:37:15;27.42;;;21.23;;
12519;SDS011;6325;49.540;8.364;2022-12-18T14:39:57;31.88;;;24.00;;
12519;SDS011;6325;49.540;8.364;2022-12-18T14:42:26;28.65;;;22.00;;
12519;SDS011;6325;49.540;8.364;2022-12-18T14:48:00;27.88;;;21.08;;
12519;SDS011;6325;49.540;8.364;2022-12-18T14:50:33;25.67;;;20.30;;
12519;SDS011;6325;49.540;8.364;2022-12-18T14:53:01;24.60;;;19.15;;
12519;SDS011;6325;49.540;8.364;2022-12-18T14:55:28;27.35;;;21.17;;
12519;SDS011;6325;49.540;8.364;2022-12-18T14:57:55;32.20;;;25.20;;
12519;SDS011;6325;49.540;8.364;2022-12-18T15:00:24;27.95;;;22.25;;
12519;SDS011;6325;49.540;8.364;2022-12-18T15:02:54;25.17;;;20.08;;
12519;SDS011;6325;49.540;8.364;2022-12-18T15:05:25;27.27;;;21.15;;
12519;SDS011;6325;49.540;8.364;2022-12-18T15:07:54;27.38;;;21.25;;
12519;SDS011;6325;49.540;8.364;2022-12-18T15:10:23;25.70;;;19.83;;
12519;SDS011;6325;49.540;8.364;2022-12-18T15:13:05;23.60;;;18.63;;
12519;SDS011;6325;49.540;8.364;2022-12-18T15:15:49;24.27;;;18.77;;